sensor_id;sensor_type;location;lat;lon;timestamp;pressure;altitude;pressure_sealevel;temperature;humidity
41706;BME280;27385;51.096;17.190;2023-03-03T00:02:16;100776.81;;;0.36;91.59
41706;BME280;27385;51.096;17.190;2023-03-03T00:04:45;100773.05;;;0.39;91.63
41706;BME280;27385;51.096;17.190;2023-03-03T00:07:14;100771.85;;;0.42;91.57
41706;BME280;27385;51.096;17.190;2023-03-03T00:09:49;100770.42;;;0.44;91.64
41706;BME280;27385;51.096;17.190;2023-03-03T00:12:20;100774.45;;;0.41;91.71
41706;BME280;27385;51.096;17.190;2023-03-03T00:14:51;100778.30;;;0.38;91.92
41706;BME280;27385;51.096;17.190;2023-03-03T00:17:21;100776.58;;;0.36;92.03
41706;BME280;27385;51.096;17.190;2023-03-03T00:19:51;100776.81;;;0.35;92.04
41706;BME280;27385;51.096;17.190;2023-03-03T00:22:27;100780.58;;;0.36;92.10
41706;BME280;27385;51.096;17.190;2023-03-03T00:24:59;100780.96;;;0.36;92.20
41706;BME280;27385;51.096;17.190;2023-03-03T00:27:30;100785.29;;;0.34;92.24
41706;BME280;27385;51.096;17.190;2023-03-03T00:30:00;100796.59;;;0.33;92.11
41706;BME280;27385;51.096;17.190;2023-03-03T00:32:32;100799.10;;;0.33;92.15
41706;BME280;27385;51.096;17.190;2023-03-03T00:35:18;100793.69;;;0.33;92.24
41706;BME280;27385;51.096;17.190;2023-03-03T00:37:50;100785.62;;;0.32;92.42
41706;BME280;27385;51.096;17.190;2023-03-03T00:40:23;100778.48;;;0.31;92.24
41706;BME280;27385;51.096;17.190;2023-03-03T00:42:53;100778.40;;;0.32;92.33
41706;BME280;27385;51.096;17.190;2023-03-03T00:45:27;100777.36;;;0.33;92.30
41706;BME280;27385;51.096;17.190;2023-03-03T00:47:57;100773.55;;;0.30;92.39
41706;BME280;27385;51.096;17.190;2023-03-03T00:50:28;100768.75;;;0.28;92.38
41706;BME280;27385;51.096;17.190;2023-03-03T00:53:04;100768.77;;;0.25;92.37
41706;BME280;27385;51.096;17.190;2023-03-03T00:55:34;100768.69;;;0.26;92.51
41706;BME280;27385;51.096;17.190;2023-03-03T00:58:04;100766.02;;;0.25;92.55
41706;BME280;27385;51.096;17.190;2023-03-03T01:00:33;100765.77;;;0.27;92.62
41706;BME280;27385;51.096;17.190;2023-03-03T01:03:04;100761.39;;;0.25;92.63
41706;BME280;27385;51.096;17.190;2023-03-03T01:05:34;100761.63;;;0.22;92.71
41706;BME280;27385;51.096;17.190;2023-03-03T01:08:03;100755.38;;;0.17;92.64
41706;BME280;27385;51.096;17.190;2023-03-03T01:10:33;100752.70;;;0.16;92.69
41706;BME280;27385;51.096;17.190;2023-03-03T01:13:04;100753.64;;;0.15;92.70
41706;BME280;27385;51.096;17.190;2023-03-03T01:15:34;100753.64;;;0.17;92.67
41706;BME280;27385;51.096;17.190;2023-03-03T01:18:03;100754.12;;;0.18;92.75
41706;BME280;27385;51.096;17.190;2023-03-03T01:20:32;100750.73;;;0.18;92.60
41706;BME280;27385;51.096;17.190;2023-03-03T01:23:02;100749.96;;;0.18;92.56
41706;BME280;27385;51.096;17.190;2023-03-03T01:25:31;100748.55;;;0.16;92.55
41706;BME280;27385;51.096;17.190;2023-03-03T01:28:00;100745.27;;;0.15;92.55
41706;BME280;27385;51.096;17.190;2023-03-03T01:30:30;100738.67;;;0.13;92.59
41706;BME280;27385;51.096;17.190;2023-03-03T01:32:59;100734.69;;;0.12;92.56
41706;BME280;27385;51.096;17.190;2023-03-03T01:35:28;100734.12;;;0.13;92.47
41706;BME280;27385;51.096;17.190;2023-03-03T01:37:58;100730.13;;;0.11;92.45
41706;BME280;27385;51.096;17.190;2023-03-03T01:40:28;100730.52;;;0.09;92.48
41706;BME280;27385;51.096;17.190;2023-03-03T01:42:59;100727.55;;;0.06;92.49
41706;BME280;27385;51.096;17.190;2023-03-03T01:45:29;100722.48;;;0.00;92.47
41706;BME280;27385;51.096;17.190;2023-03-03T01:48:00;100720.37;;;-0.06;92.46
41706;BME280;27385;51.096;17.190;2023-03-03T01:50:33;100723.36;;;-0.10;92.44
41706;BME280;27385;51.096;17.190;2023-03-03T01:53:05;100719.60;;;-0.13;92.72
41706;BME280;27385;51.096;17.190;2023-03-03T01:55:38;100713.33;;;-0.15;92.89
41706;BME280;27385;51.096;17.190;2023-03-03T01:58:09;100713.48;;;-0.16;92.98
41706;BME280;27385;51.096;17.190;2023-03-03T02:00:40;100709.02;;;-0.17;93.06
41706;BME280;27385;51.096;17.190;2023-03-03T02:03:10;100709.88;;;-0.19;93.06
41706;BME280;27385;51.096;17.190;2023-03-03T02:05:39;100711.60;;;-0.18;93.11
41706;BME280;27385;51.096;17.190;2023-03-03T02:08:10;100709.34;;;-0.17;93.21
41706;BME280;27385;51.096;17.190;2023-03-03T02:10:40;100708.86;;;-0.18;93.31
41706;BME280;27385;51.096;17.190;2023-03-03T02:13:09;100702.27;;;-0.19;93.15
41706;BME280;27385;51.096;17.190;2023-03-03T02:15:38;100700.88;;;-0.18;93.22
41706;BME280;27385;51.096;17.190;2023-03-03T02:18:08;100700.48;;;-0.18;93.18
41706;BME280;27385;51.096;17.190;2023-03-03T02:20:42;100697.73;;;-0.19;93.25
41706;BME280;27385;51.096;17.190;2023-03-03T02:23:15;100689.59;;;-0.21;93.08
41706;BME280;27385;51.096;17.190;2023-03-03T02:25:47;100680.42;;;-0.24;93.06
41706;BME280;27385;51.096;17.190;2023-03-03T02:28:20;100679.88;;;-0.24;93.29
41706;BME280;27385;51.096;17.190;2023-03-03T02:30:51;100687.02;;;-0.25;93.05
41706;BME280;27385;51.096;17.190;2023-03-03T02:33:22;100694.92;;;-0.25;93.08
41706;BME280;27385;51.096;17.190;2023-03-03T02:35:51;100694.06;;;-0.27;93.07
41706;BME280;27385;51.096;17.190;2023-03-03T02:38:21;100691.48;;;-0.30;93.24
41706;BME280;27385;51.096;17.190;2023-03-03T02:40:55;100701.60;;;-0.30;93.61
41706;BME280;27385;51.096;17.190;2023-03-03T02:43:28;100698.55;;;-0.33;93.60
41706;BME280;27385;51.096;17.190;2023-03-03T02:46:00;100700.60;;;-0.33;93.61
41706;BME280;27385;51.096;17.190;2023-03-03T02:48:29;100701.69;;;-0.33;93.63
41706;BME280;27385;51.096;17.190;2023-03-03T02:50:59;100702.01;;;-0.33;93.68
41706;BME280;27385;51.096;17.190;2023-03-03T02:53:28;100709.99;;;-0.34;93.92
41706;BME280;27385;51.096;17.190;2023-03-03T02:55:57;100716.56;;;-0.38;93.79
41706;BME280;27385;51.096;17.190;2023-03-03T02:58:27;100714.23;;;-0.42;93.99
41706;BME280;27385;51.096;17.190;2023-03-03T03:00:56;100724.73;;;-0.45;94.55
41706;BME280;27385;51.096;17.190;2023-03-03T03:03:25;100731.95;;;-0.49;94.77
41706;BME280;27385;51.096;17.190;2023-03-03T03:05:54;100736.34;;;-0.51;94.85
41706;BME280;27385;51.096;17.190;2023-03-03T03:08:23;100738.30;;;-0.55;95.13
41706;BME280;27385;51.096;17.190;2023-03-03T03:10:52;100734.14;;;-0.57;95.25
41706;BME280;27385;51.096;17.190;2023-03-03T03:13:24;100730.77;;;-0.59;95.41
41706;BME280;27385;51.096;17.190;2023-03-03T03:15:53;100731.40;;;-0.60;95.29
41706;BME280;27385;51.096;17.190;2023-03-03T03:18:22;100729.29;;;-0.61;95.49
41706;BME280;27385;51.096;17.190;2023-03-03T03:20:52;100728.80;;;-0.63;95.93
41706;BME280;27385;51.096;17.190;2023-03-03T03:23:24;100726.30;;;-0.64;95.77
41706;BME280;27385;51.096;17.190;2023-03-03T03:25:53;100718.00;;;-0.64;95.73
41706;BME280;27385;51.096;17.190;2023-03-03T03:28:22;100713.77;;;-0.65;95.68
41706;BME280;27385;51.096;17.190;2023-03-03T03:30:52;100709.55;;;-0.65;95.64
41706;BME280;27385;51.096;17.190;2023-03-03T03:33:21;100703.36;;;-0.63;95.66
41706;BME280;27385;51.096;17.190;2023-03-03T03:35:50;100700.61;;;-0.61;95.77
41706;BME280;27385;51.096;17.190;2023-03-03T03:38:20;100692.70;;;-0.61;95.79
41706;BME280;27385;51.096;17.190;2023-03-03T03:40:49;100688.62;;;-0.60;95.77
41706;BME280;27385;51.096;17.190;2023-03-03T03:43:18;100690.59;;;-0.59;95.70
41706;BME280;27385;51.096;17.190;2023-03-03T03:45:47;100694.17;;;-0.58;95.79
41706;BME280;27385;51.096;17.190;2023-03-03T03:48:17;100695.12;;;-0.57;95.86
41706;BME280;27385;51.096;17.190;2023-03-03T03:50:47;100698.34;;;-0.56;95.80
41706;BME280;27385;51.096;17.190;2023-03-03T03:53:16;100701.45;;;-0.56;95.93
41706;BME280;27385;51.096;17.190;2023-03-03T03:55:45;100704.67;;;-0.58;96.16
41706;BME280;27385;51.096;17.190;2023-03-03T03:58:15;100708.05;;;-0.60;96.26
41706;BME280;27385;51.096;17.190;2023-03-03T04:00:45;100710.10;;;-0.61;96.42
41706;BME280;27385;51.096;17.190;2023-03-03T04:03:15;100709.07;;;-0.63;96.62
41706;BME280;27385;51.096;17.190;2023-03-03T04:05:44;100706.17;;;-0.65;96.54
41706;BME280;27385;51.096;17.190;2023-03-03T04:08:13;100709.77;;;-0.64;96.53
41706;BME280;27385;51.096;17.190;2023-03-03T04:10:42;100721.29;;;-0.64;96.59
41706;BME280;27385;51.096;17.190;2023-03-03T04:13:11;100722.62;;;-0.64;96.63
41706;BME280;27385;51.096;17.190;2023-03-03T04:15:40;100727.64;;;-0.65;96.76
41706;BME280;27385;51.096;17.190;2023-03-03T04:18:10;100728.66;;;-0.64;96.80
41706;BME280;27385;51.096;17.190;2023-03-03T04:20:40;100728.66;;;-0.66;96.96
41706;BME280;27385;51.096;17.190;2023-03-03T04:23:10;100726.08;;;-0.68;96.73
41706;BME280;27385;51.096;17.190;2023-03-03T04:25:42;100734.53;;;-0.69;96.63
41706;BME280;27385;51.096;17.190;2023-03-03T04:28:14;100742.21;;;-0.69;96.83
41706;BME280;27385;51.096;17.190;2023-03-03T04:30:43;100744.23;;;-0.71;97.31
41706;BME280;27385;51.096;17.190;2023-03-03T04:33:13;100744.88;;;-0.73;97.33
41706;BME280;27385;51.096;17.190;2023-03-03T04:35:42;100741.58;;;-0.75;97.05
41706;BME280;27385;51.096;17.190;2023-03-03T04:38:11;100735.08;;;-0.74;96.90
41706;BME280;27385;51.096;17.190;2023-03-03T04:40:41;100742.67;;;-0.74;97.06
41706;BME280;27385;51.096;17.190;2023-03-03T04:43:10;100743.52;;;-0.75;97.12
41706;BME280;27385;51.096;17.190;2023-03-03T04:45:39;100753.09;;;-0.76;97.47
41706;BME280;27385;51.096;17.190;2023-03-03T04:48:08;100758.10;;;-0.79;97.81
41706;BME280;27385;51.096;17.190;2023-03-03T04:50:38;100759.02;;;-0.85;97.63
41706;BME280;27385;51.096;17.190;2023-03-03T04:53:07;100756.75;;;-0.89;97.24
41706;BME280;27385;51.096;17.190;2023-03-03T04:55:36;100752.84;;;-0.89;97.10
41706;BME280;27385;51.096;17.190;2023-03-03T04:58:05;100751.73;;;-0.90;97.37
41706;BME280;27385;51.096;17.190;2023-03-03T05:00:37;100747.59;;;-0.90;97.81
41706;BME280;27385;51.096;17.190;2023-03-03T05:03:06;100753.54;;;-0.91;97.75
41706;BME280;27385;51.096;17.190;2023-03-03T05:05:36;100739.83;;;-0.92;97.52
41706;BME280;27385;51.096;17.190;2023-03-03T05:08:06;100742.88;;;-0.93;97.24
41706;BME280;27385;51.096;17.190;2023-03-03T05:10:35;100740.92;;;-0.94;97.27
41706;BME280;27385;51.096;17.190;2023-03-03T05:13:05;100743.42;;;-0.94;97.42
41706;BME280;27385;51.096;17.190;2023-03-03T05:15:36;100739.91;;;-0.96;97.81
41706;BME280;27385;51.096;17.190;2023-03-03T05:18:05;100729.34;;;-0.96;97.46
41706;BME280;27385;51.096;17.190;2023-03-03T05:20:34;100727.14;;;-0.95;97.33
41706;BME280;27385;51.096;17.190;2023-03-03T05:23:03;100730.89;;;-0.95;97.37
41706;BME280;27385;51.096;17.190;2023-03-03T05:25:32;100729.89;;;-0.93;97.33
41706;BME280;27385;51.096;17.190;2023-03-03T05:28:01;100735.05;;;-0.92;97.39
41706;BME280;27385;51.096;17.190;2023-03-03T05:30:31;100744.29;;;-0.92;97.51
41706;BME280;27385;51.096;17.190;2023-03-03T05:33:01;100747.11;;;-0.94;97.75
41706;BME280;27385;51.096;17.190;2023-03-03T05:35:30;100736.94;;;-0.94;97.62
41706;BME280;27385;51.096;17.190;2023-03-03T05:38:00;100738.73;;;-0.95;97.83
41706;BME280;27385;51.096;17.190;2023-03-03T05:40:29;100740.91;;;-0.97;97.57
41706;BME280;27385;51.096;17.190;2023-03-03T05:42:59;100737.95;;;-1.00;97.50
41706;BME280;27385;51.096;17.190;2023-03-03T05:45:28;100728.39;;;-1.01;97.24
41706;BME280;27385;51.096;17.190;2023-03-03T05:47:57;100729.41;;;-1.02;96.94
41706;BME280;27385;51.096;17.190;2023-03-03T05:50:26;100734.34;;;-1.02;97.23
41706;BME280;27385;51.096;17.190;2023-03-03T05:52:56;100731.59;;;-1.02;97.13
41706;BME280;27385;51.096;17.190;2023-03-03T05:55:25;100738.19;;;-1.00;97.27
41706;BME280;27385;51.096;17.190;2023-03-03T05:57:55;100737.16;;;-0.98;97.25
41706;BME280;27385;51.096;17.190;2023-03-03T06:00:24;100739.66;;;-0.96;97.61
41706;BME280;27385;51.096;17.190;2023-03-03T06:02:54;100745.30;;;-0.95;97.49
41706;BME280;27385;51.096;17.190;2023-03-03T06:05:23;100744.84;;;-0.95;97.97
41706;BME280;27385;51.096;17.190;2023-03-03T06:07:52;100747.42;;;-0.95;98.08
41706;BME280;27385;51.096;17.190;2023-03-03T06:10:21;100747.56;;;-0.95;97.94
41706;BME280;27385;51.096;17.190;2023-03-03T06:12:51;100749.92;;;-0.96;97.73
41706;BME280;27385;51.096;17.190;2023-03-03T06:15:22;100746.95;;;-0.95;97.44
41706;BME280;27385;51.096;17.190;2023-03-03T06:17:51;100749.94;;;-0.94;97.35
41706;BME280;27385;51.096;17.190;2023-03-03T06:20:20;100750.40;;;-0.94;97.36
41706;BME280;27385;51.096;17.190;2023-03-03T06:22:50;100746.57;;;-0.92;97.37
41706;BME280;27385;51.096;17.190;2023-03-03T06:25:19;100760.66;;;-0.89;97.32
41706;BME280;27385;51.096;17.190;2023-03-03T06:27:48;100769.91;;;-0.90;97.29
41706;BME280;27385;51.096;17.190;2023-03-03T06:30:18;100773.04;;;-0.91;97.27
41706;BME280;27385;51.096;17.190;2023-03-03T06:32:47;100779.15;;;-0.92;97.14
41706;BME280;27385;51.096;17.190;2023-03-03T06:35:16;100786.50;;;-0.92;97.19
41706;BME280;27385;51.096;17.190;2023-03-03T06:37:46;100789.02;;;-0.93;97.15
41706;BME280;27385;51.096;17.190;2023-03-03T06:40:17;100788.14;;;-0.96;97.30
41706;BME280;27385;51.096;17.190;2023-03-03T06:42:46;100784.06;;;-0.99;97.15
41706;BME280;27385;51.096;17.190;2023-03-03T06:45:16;100773.88;;;-1.01;97.21
41706;BME280;27385;51.096;17.190;2023-03-03T06:47:45;100769.58;;;-1.02;97.17
41706;BME280;27385;51.096;17.190;2023-03-03T06:50:14;100775.37;;;-1.04;97.22
41706;BME280;27385;51.096;17.190;2023-03-03T06:52:46;100768.79;;;-1.04;97.20
41706;BME280;27385;51.096;17.190;2023-03-03T06:55:17;100766.98;;;-1.04;96.99
41706;BME280;27385;51.096;17.190;2023-03-03T06:57:49;100775.67;;;-1.03;97.17
41706;BME280;27385;51.096;17.190;2023-03-03T07:00:20;100779.27;;;-1.03;97.27
41706;BME280;27385;51.096;17.190;2023-03-03T07:02:52;100779.27;;;-1.03;97.59
41706;BME280;27385;51.096;17.190;2023-03-03T07:05:26;100778.89;;;-1.02;97.68
41706;BME280;27385;51.096;17.190;2023-03-03T07:07:56;100784.67;;;-1.03;97.62
41706;BME280;27385;51.096;17.190;2023-03-03T07:10:26;100787.25;;;-1.03;97.76
41706;BME280;27385;51.096;17.190;2023-03-03T07:12:57;100788.90;;;-1.05;98.32
41706;BME280;27385;51.096;17.190;2023-03-03T07:15:32;100797.27;;;-1.06;98.14
41706;BME280;27385;51.096;17.190;2023-03-03T07:18:01;100798.84;;;-1.05;98.14
41706;BME280;27385;51.096;17.190;2023-03-03T07:20:35;100812.01;;;-1.04;98.67
41706;BME280;27385;51.096;17.190;2023-03-03T07:23:11;100813.65;;;-1.05;98.49
41706;BME280;27385;51.096;17.190;2023-03-03T07:25:43;100813.41;;;-1.04;98.64
41706;BME280;27385;51.096;17.190;2023-03-03T07:28:15;100825.07;;;-1.03;98.81
41706;BME280;27385;51.096;17.190;2023-03-03T07:30:48;100824.21;;;-1.04;99.14
41706;BME280;27385;51.096;17.190;2023-03-03T07:33:22;100827.42;;;-1.03;98.92
41706;BME280;27385;51.096;17.190;2023-03-03T07:35:53;100823.05;;;-1.02;98.75
41706;BME280;27385;51.096;17.190;2023-03-03T07:38:24;100812.33;;;-1.02;98.49
41706;BME280;27385;51.096;17.190;2023-03-03T07:40:58;100805.27;;;-1.03;98.40
41706;BME280;27385;51.096;17.190;2023-03-03T07:43:30;100807.77;;;-1.03;98.23
41706;BME280;27385;51.096;17.190;2023-03-03T07:46:02;100804.56;;;-1.02;98.24
41706;BME280;27385;51.096;17.190;2023-03-03T07:48:42;100803.40;;;-1.00;98.23
41706;BME280;27385;51.096;17.190;2023-03-03T07:51:13;100812.24;;;-0.99;98.16
41706;BME280;27385;51.096;17.190;2023-03-03T07:53:44;100808.81;;;-0.99;98.17
41706;BME280;27385;51.096;17.190;2023-03-03T07:56:15;100812.64;;;-0.99;98.11
41706;BME280;27385;51.096;17.190;2023-03-03T07:58:45;100813.98;;;-0.98;98.12
41706;BME280;27385;51.096;17.190;2023-03-03T08:04:00;100807.09;;;-0.97;97.89
41706;BME280;27385;51.096;17.190;2023-03-03T08:06:41;100801.92;;;-0.96;97.87
41706;BME280;27385;51.096;17.190;2023-03-03T08:09:24;100800.52;;;-0.95;97.81
41706;BME280;27385;51.096;17.190;2023-03-03T08:11:56;100806.92;;;-0.94;97.64
41706;BME280;27385;51.096;17.190;2023-03-03T08:14:28;100802.00;;;-0.93;97.69
41706;BME280;27385;51.096;17.190;2023-03-03T08:16:58;100805.45;;;-0.93;97.64
41706;BME280;27385;51.096;17.190;2023-03-03T08:19:27;100807.64;;;-0.96;97.59
41706;BME280;27385;51.096;17.190;2023-03-03T08:22:00;100808.41;;;-0.98;97.58
41706;BME280;27385;51.096;17.190;2023-03-03T08:24:30;100808.02;;;-0.98;97.64
41706;BME280;27385;51.096;17.190;2023-03-03T08:27:00;100803.71;;;-0.97;97.63
41706;BME280;27385;51.096;17.190;2023-03-03T08:29:29;100801.60;;;-0.95;97.47
41706;BME280;27385;51.096;17.190;2023-03-03T08:31:58;100795.81;;;-0.94;97.50
41706;BME280;27385;51.096;17.190;2023-03-03T08:34:28;100796.77;;;-0.91;97.52
41706;BME280;27385;51.096;17.190;2023-03-03T08:36:57;100794.81;;;-0.91;97.51
41706;BME280;27385;51.096;17.190;2023-03-03T08:39:26;100794.81;;;-0.89;97.45
41706;BME280;27385;51.096;17.190;2023-03-03T08:41:55;100793.64;;;-0.86;97.37
41706;BME280;27385;51.096;17.190;2023-03-03T08:44:24;100797.88;;;-0.82;97.51
41706;BME280;27385;51.096;17.190;2023-03-03T08:46:54;100810.50;;;-0.80;97.44
41706;BME280;27385;51.096;17.190;2023-03-03T08:49:23;100809.01;;;-0.80;97.38
41706;BME280;27385;51.096;17.190;2023-03-03T08:51:52;100816.44;;;-0.79;97.41
41706;BME280;27385;51.096;17.190;2023-03-03T08:54:22;100826.86;;;-0.78;97.20
41706;BME280;27385;51.096;17.190;2023-03-03T08:56:51;100831.10;;;-0.77;97.18
41706;BME280;27385;51.096;17.190;2023-03-03T08:59:20;100831.02;;;-0.77;97.14
41706;BME280;27385;51.096;17.190;2023-03-03T09:01:50;100836.51;;;-0.77;97.13
41706;BME280;27385;51.096;17.190;2023-03-03T09:04:19;100833.29;;;-0.77;97.11
41706;BME280;27385;51.096;17.190;2023-03-03T09:06:49;100827.34;;;-0.77;97.08
41706;BME280;27385;51.096;17.190;2023-03-03T09:09:18;100827.65;;;-0.74;97.12
41706;BME280;27385;51.096;17.190;2023-03-03T09:11:47;100831.34;;;-0.74;96.98
41706;BME280;27385;51.096;17.190;2023-03-03T09:14:17;100834.70;;;-0.75;96.75
41706;BME280;27385;51.096;17.190;2023-03-03T09:16:49;100837.45;;;-0.75;96.85
41706;BME280;27385;51.096;17.190;2023-03-03T09:19:20;100843.18;;;-0.73;96.98
41706;BME280;27385;51.096;17.190;2023-03-03T09:21:50;100843.70;;;-0.76;96.73
41706;BME280;27385;51.096;17.190;2023-03-03T09:24:25;100846.13;;;-0.78;96.66
41706;BME280;27385;51.096;17.190;2023-03-03T09:26:55;100849.65;;;-0.77;96.82
41706;BME280;27385;51.096;17.190;2023-03-03T09:29:27;100850.05;;;-0.76;96.80
41706;BME280;27385;51.096;17.190;2023-03-03T09:31:57;100852.16;;;-0.76;96.70
41706;BME280;27385;51.096;17.190;2023-03-03T09:34:32;100854.75;;;-0.75;97.05
41706;BME280;27385;51.096;17.190;2023-03-03T09:37:14;100865.33;;;-0.78;96.85
41706;BME280;27385;51.096;17.190;2023-03-03T09:39:46;100865.95;;;-0.82;96.86
41706;BME280;27385;51.096;17.190;2023-03-03T09:42:19;100865.77;;;-0.83;96.98
41706;BME280;27385;51.096;17.190;2023-03-03T09:47:48;100857.41;;;-0.81;97.21
41706;BME280;27385;51.096;17.190;2023-03-03T09:50:27;100855.22;;;-0.78;97.35
41706;BME280;27385;51.096;17.190;2023-03-03T09:53:01;100853.27;;;-0.74;97.40
41706;BME280;27385;51.096;17.190;2023-03-03T09:55:37;100853.28;;;-0.71;97.29
41706;BME280;27385;51.096;17.190;2023-03-03T09:58:13;100852.89;;;-0.70;97.14
41706;BME280;27385;51.096;17.190;2023-03-03T10:00:51;100858.63;;;-0.67;97.27
41706;BME280;27385;51.096;17.190;2023-03-03T10:03:32;100859.09;;;-0.65;97.45
41706;BME280;27385;51.096;17.190;2023-03-03T10:06:07;100857.14;;;-0.64;97.30
41706;BME280;27385;51.096;17.190;2023-03-03T10:08:43;100859.73;;;-0.61;97.50
41706;BME280;27385;51.096;17.190;2023-03-03T10:11:18;100857.23;;;-0.58;97.38
41706;BME280;27385;51.096;17.190;2023-03-03T10:13:54;100854.65;;;-0.56;97.46
41706;BME280;27385;51.096;17.190;2023-03-03T10:16:33;100856.85;;;-0.54;97.17
41706;BME280;27385;51.096;17.190;2023-03-03T10:19:09;100856.85;;;-0.54;97.24
41706;BME280;27385;51.096;17.190;2023-03-03T10:21:43;100855.42;;;-0.55;96.89
41706;BME280;27385;51.096;17.190;2023-03-03T10:24:19;100856.36;;;-0.56;96.94
41706;BME280;27385;51.096;17.190;2023-03-03T10:27:04;100853.63;;;-0.53;97.21
41706;BME280;27385;51.096;17.190;2023-03-03T10:29:39;100853.02;;;-0.48;97.37
41706;BME280;27385;51.096;17.190;2023-03-03T10:32:15;100858.73;;;-0.44;97.13
41706;BME280;27385;51.096;17.190;2023-03-03T10:35:01;100862.19;;;-0.45;96.85
41706;BME280;27385;51.096;17.190;2023-03-03T10:37:35;100860.15;;;-0.46;96.72
41706;BME280;27385;51.096;17.190;2023-03-03T10:40:10;100858.58;;;-0.45;96.91
41706;BME280;27385;51.096;17.190;2023-03-03T10:42:52;100853.48;;;-0.42;96.89
41706;BME280;27385;51.096;17.190;2023-03-03T10:45:28;100856.09;;;-0.39;96.87
41706;BME280;27385;51.096;17.190;2023-03-03T10:48:20;100854.27;;;-0.36;96.58
41706;BME280;27385;51.096;17.190;2023-03-03T10:50:55;100851.94;;;-0.32;96.39
41706;BME280;27385;51.096;17.190;2023-03-03T10:53:28;100849.66;;;-0.26;96.43
41706;BME280;27385;51.096;17.190;2023-03-03T10:56:07;100845.59;;;-0.21;96.34
41706;BME280;27385;51.096;17.190;2023-03-03T10:58:47;100840.27;;;-0.19;96.13
41706;BME280;27385;51.096;17.190;2023-03-03T11:01:23;100841.29;;;-0.16;96.15
41706;BME280;27385;51.096;17.190;2023-03-03T11:04:04;100841.05;;;-0.12;96.07
41706;BME280;27385;51.096;17.190;2023-03-03T11:06:41;100835.08;;;-0.06;96.25
41706;BME280;27385;51.096;17.190;2023-03-03T11:09:15;100827.09;;;-0.02;96.17
41706;BME280;27385;51.096;17.190;2023-03-03T11:11:46;100819.41;;;0.01;96.18
41706;BME280;27385;51.096;17.190;2023-03-03T11:14:20;100815.95;;;0.05;96.16
41706;BME280;27385;51.096;17.190;2023-03-03T11:16:54;100822.37;;;0.10;96.24
41706;BME280;27385;51.096;17.190;2023-03-03T11:19:28;100825.50;;;0.14;95.88
41706;BME280;27385;51.096;17.190;2023-03-03T11:22:01;100828.08;;;0.15;95.58
41706;BME280;27385;51.096;17.190;2023-03-03T11:24:41;100826.84;;;0.17;95.25
41706;BME280;27385;51.096;17.190;2023-03-03T11:27:20;100829.34;;;0.17;95.14
41706;BME280;27385;51.096;17.190;2023-03-03T11:29:54;100827.15;;;0.18;95.10
41706;BME280;27385;51.096;17.190;2023-03-03T11:32:30;100819.53;;;0.21;95.19
41706;BME280;27385;51.096;17.190;2023-03-03T11:35:05;100815.60;;;0.24;95.05
41706;BME280;27385;51.096;17.190;2023-03-03T11:37:42;100811.50;;;0.31;95.15
41706;BME280;27385;51.096;17.190;2023-03-03T11:40:15;100812.67;;;0.35;94.84
41706;BME280;27385;51.096;17.190;2023-03-03T11:42:49;100808.12;;;0.39;95.16
41706;BME280;27385;51.096;17.190;2023-03-03T11:45:21;100802.99;;;0.44;94.99
41706;BME280;27385;51.096;17.190;2023-03-03T11:47:56;100805.04;;;0.46;94.55
41706;BME280;27385;51.096;17.190;2023-03-03T11:50:28;100803.94;;;0.46;94.32
41706;BME280;27385;51.096;17.190;2023-03-03T11:53:02;100804.87;;;0.49;94.21
41706;BME280;27385;51.096;17.190;2023-03-03T11:55:36;100809.95;;;0.53;94.27
41706;BME280;27385;51.096;17.190;2023-03-03T11:58:10;100810.50;;;0.58;94.24
41706;BME280;27385;51.096;17.190;2023-03-03T12:00:42;100810.10;;;0.60;94.21
41706;BME280;27385;51.096;17.190;2023-03-03T12:03:25;100805.61;;;0.61;94.01
41706;BME280;27385;51.096;17.190;2023-03-03T12:06:01;100802.70;;;0.62;93.90
41706;BME280;27385;51.096;17.190;2023-03-03T12:08:39;100801.77;;;0.62;93.69
41706;BME280;27385;51.096;17.190;2023-03-03T12:11:12;100801.67;;;0.64;93.75
41706;BME280;27385;51.096;17.190;2023-03-03T12:13:48;100801.04;;;0.65;93.62
41706;BME280;27385;51.096;17.190;2023-03-03T12:16:21;100796.88;;;0.64;93.62
41706;BME280;27385;51.096;17.190;2023-03-03T12:18:58;100792.73;;;0.65;93.68
41706;BME280;27385;51.096;17.190;2023-03-03T12:21:44;100796.09;;;0.67;93.77
41706;BME280;27385;51.096;17.190;2023-03-03T12:24:18;100791.91;;;0.72;93.99
41706;BME280;27385;51.096;17.190;2023-03-03T12:26:53;100794.65;;;0.75;93.85
41706;BME280;27385;51.096;17.190;2023-03-03T12:29:26;100795.02;;;0.78;93.86
41706;BME280;27385;51.096;17.190;2023-03-03T12:32:03;100796.59;;;0.80;93.78
41706;BME280;27385;51.096;17.190;2023-03-03T12:34:40;100796.35;;;0.82;93.63
41706;BME280;27385;51.096;17.190;2023-03-03T12:37:14;100794.29;;;0.84;93.51
41706;BME280;27385;51.096;17.190;2023-03-03T12:39:49;100788.48;;;0.85;93.35
41706;BME280;27385;51.096;17.190;2023-03-03T12:42:23;100785.25;;;0.85;93.18
41706;BME280;27385;51.096;17.190;2023-03-03T12:44:58;100784.45;;;0.88;93.34
41706;BME280;27385;51.096;17.190;2023-03-03T12:47:35;100785.06;;;0.92;93.53
41706;BME280;27385;51.096;17.190;2023-03-03T12:50:18;100788.98;;;0.94;93.27
41706;BME280;27385;51.096;17.190;2023-03-03T12:52:52;100788.05;;;0.93;93.04
41706;BME280;27385;51.096;17.190;2023-03-03T12:55:29;100786.24;;;0.93;93.07
41706;BME280;27385;51.096;17.190;2023-03-03T12:58:05;100783.23;;;0.96;93.02
41706;BME280;27385;51.096;17.190;2023-03-03T13:00:41;100783.55;;;0.98;92.67
41706;BME280;27385;51.096;17.190;2023-03-03T13:03:13;100786.69;;;0.98;92.46
41706;BME280;27385;51.096;17.190;2023-03-03T13:05:48;100787.79;;;0.98;92.59
41706;BME280;27385;51.096;17.190;2023-03-03T13:08:27;100785.04;;;0.98;92.21
41706;BME280;27385;51.096;17.190;2023-03-03T13:11:02;100784.64;;;0.98;92.24
41706;BME280;27385;51.096;17.190;2023-03-03T13:13:34;100783.14;;;0.98;92.01